sensor_id;sensor_type;location;lat;lon;timestamp;P1;durP1;ratioP1;P2;durP2;ratioP2
78887;SDS011;68276;49.326;8.690;2023-12-20T00:01:08;9.00;;;3.63;;
78887;SDS011;68276;49.326;8.690;2023-12-20T00:03:33;11.13;;;3.77;;
78887;SDS011;68276;49.326;8.690;2023-12-20T00:05:58;10.87;;;4.10;;
78887;SDS011;68276;49.326;8.690;2023-12-20T00:08:23;10.00;;;3.73;;
78887;SDS011;68276;49.326;8.690;2023-12-20T00:10:49;11.50;;;4.33;;
78887;SDS011;68276;49.326;8.690;2023-12-20T00:13:14;11.13;;;4.20;;
78887;SDS011;68276;49.326;8.690;2023-12-20T00:15:39;11.27;;;3.77;;
78887;SDS011;68276;49.326;8.690;2023-12-20T00:18:05;10.53;;;3.60;;
78887;SDS011;68276;49.326;8.690;2023-12-20T00:20:30;10.43;;;4.43;;
78887;SDS011;68276;49.326;8.690;2023-12-20T00:22:56;13.30;;;4.13;;
78887;SDS011;68276;49.326;8.690;2023-12-20T00:25:21;12.07;;;3.95;;
78887;SDS011;68276;49.326;8.690;2023-12-20T00:27:46;10.87;;;4.27;;
78887;SDS011;68276;49.326;8.690;2023-12-20T00:30:11;10.93;;;4.30;;
78887;SDS011;68276;49.326;8.690;2023-12-20T00:32:37;9.05;;;3.63;;
78887;SDS011;68276;49.326;8.690;2023-12-20T00:35:03;9.50;;;3.65;;
78887;SDS011;68276;49.326;8.690;2023-12-20T00:37:28;11.35;;;4.40;;
78887;SDS011;68276;49.326;8.690;2023-12-20T00:39:53;12.20;;;4.20;;
78887;SDS011;68276;49.326;8.690;2023-12-20T00:42:18;12.93;;;4.70;;
78887;SDS011;68276;49.326;8.690;2023-12-20T00:44:44;13.27;;;4.73;;
78887;SDS011;68276;49.326;8.690;2023-12-20T00:47:09;13.73;;;5.47;;
78887;SDS011;68276;49.326;8.690;2023-12-20T00:49:35;13.30;;;4.82;;
78887;SDS011;68276;49.326;8.690;2023-12-20T00:52:00;12.07;;;4.60;;
78887;SDS011;68276;49.326;8.690;2023-12-20T00:54:25;12.17;;;4.00;;
78887;SDS011;68276;49.326;8.690;2023-12-20T00:56:51;10.40;;;3.80;;
78887;SDS011;68276;49.326;8.690;2023-12-20T00:59:16;13.57;;;4.67;;
78887;SDS011;68276;49.326;8.690;2023-12-20T01:01:41;12.52;;;4.82;;
78887;SDS011;68276;49.326;8.690;2023-12-20T01:04:07;11.52;;;4.03;;
78887;SDS011;68276;49.326;8.690;2023-12-20T01:06:32;12.57;;;4.63;;
78887;SDS011;68276;49.326;8.690;2023-12-20T01:08:57;11.97;;;4.87;;
78887;SDS011;68276;49.326;8.690;2023-12-20T01:11:23;10.97;;;3.90;;
78887;SDS011;68276;49.326;8.690;2023-12-20T01:13:48;10.77;;;3.97;;
78887;SDS011;68276;49.326;8.690;2023-12-20T01:16:13;11.13;;;3.90;;
78887;SDS011;68276;49.326;8.690;2023-12-20T01:18:38;11.13;;;3.80;;
78887;SDS011;68276;49.326;8.690;2023-12-20T01:21:04;12.33;;;4.40;;
78887;SDS011;68276;49.326;8.690;2023-12-20T01:23:30;9.07;;;3.33;;
78887;SDS011;68276;49.326;8.690;2023-12-20T01:25:55;10.57;;;4.37;;
78887;SDS011;68276;49.326;8.690;2023-12-20T01:28:20;8.27;;;3.03;;
78887;SDS011;68276;49.326;8.690;2023-12-20T01:30:45;9.77;;;3.77;;
78887;SDS011;68276;49.326;8.690;2023-12-20T01:33:11;11.47;;;4.13;;
78887;SDS011;68276;49.326;8.690;2023-12-20T01:35:36;12.07;;;4.40;;
78887;SDS011;68276;49.326;8.690;2023-12-20T01:38:02;11.70;;;3.92;;
78887;SDS011;68276;49.326;8.690;2023-12-20T01:40:27;12.90;;;4.53;;
78887;SDS011;68276;49.326;8.690;2023-12-20T01:43:06;10.43;;;3.90;;
78887;SDS011;68276;49.326;8.690;2023-12-20T01:45:32;12.57;;;5.00;;
78887;SDS011;68276;49.326;8.690;2023-12-20T01:47:57;12.27;;;4.50;;
78887;SDS011;68276;49.326;8.690;2023-12-20T01:50:23;10.50;;;3.53;;
78887;SDS011;68276;49.326;8.690;2023-12-20T01:52:49;11.23;;;3.93;;
78887;SDS011;68276;49.326;8.690;2023-12-20T01:55:17;10.95;;;3.65;;
78887;SDS011;68276;49.326;8.690;2023-12-20T01:57:42;10.68;;;3.42;;
78887;SDS011;68276;49.326;8.690;2023-12-20T02:00:08;10.90;;;3.17;;
78887;SDS011;68276;49.326;8.690;2023-12-20T02:02:34;10.85;;;3.83;;
78887;SDS011;68276;49.326;8.690;2023-12-20T02:05:01;10.30;;;3.30;;
78887;SDS011;68276;49.326;8.690;2023-12-20T02:07:27;8.32;;;3.15;;
78887;SDS011;68276;49.326;8.690;2023-12-20T02:09:52;9.80;;;3.25;;
78887;SDS011;68276;49.326;8.690;2023-12-20T02:12:18;9.35;;;3.00;;
78887;SDS011;68276;49.326;8.690;2023-12-20T02:14:43;10.17;;;3.33;;
78887;SDS011;68276;49.326;8.690;2023-12-20T02:17:09;10.40;;;3.10;;
78887;SDS011;68276;49.326;8.690;2023-12-20T02:19:34;9.38;;;3.03;;
78887;SDS011;68276;49.326;8.690;2023-12-20T02:22:09;9.40;;;3.50;;
78887;SDS011;68276;49.326;8.690;2023-12-20T02:24:35;7.53;;;2.90;;
78887;SDS011;68276;49.326;8.690;2023-12-20T02:27:00;9.77;;;3.07;;
78887;SDS011;68276;49.326;8.690;2023-12-20T02:29:25;8.30;;;2.60;;
78887;SDS011;68276;49.326;8.690;2023-12-20T02:31:51;10.27;;;2.83;;
78887;SDS011;68276;49.326;8.690;2023-12-20T02:34:16;7.93;;;2.77;;
78887;SDS011;68276;49.326;8.690;2023-12-20T02:36:42;9.43;;;2.80;;
78887;SDS011;68276;49.326;8.690;2023-12-20T02:39:07;8.97;;;2.83;;
78887;SDS011;68276;49.326;8.690;2023-12-20T02:41:33;9.20;;;2.67;;
78887;SDS011;68276;49.326;8.690;2023-12-20T02:43:58;10.10;;;3.00;;
78887;SDS011;68276;49.326;8.690;2023-12-20T02:46:23;8.23;;;2.83;;
78887;SDS011;68276;49.326;8.690;2023-12-20T02:48:48;8.87;;;3.17;;
78887;SDS011;68276;49.326;8.690;2023-12-20T02:51:14;8.90;;;2.73;;
78887;SDS011;68276;49.326;8.690;2023-12-20T02:53:39;7.90;;;2.53;;
78887;SDS011;68276;49.326;8.690;2023-12-20T02:56:04;8.63;;;2.77;;
78887;SDS011;68276;49.326;8.690;2023-12-20T02:58:29;7.55;;;2.60;;
78887;SDS011;68276;49.326;8.690;2023-12-20T03:00:55;8.63;;;2.73;;
78887;SDS011;68276;49.326;8.690;2023-12-20T03:03:20;7.43;;;2.53;;
78887;SDS011;68276;49.326;8.690;2023-12-20T03:05:45;7.03;;;2.33;;
78887;SDS011;68276;49.326;8.690;2023-12-20T03:08:11;8.60;;;3.00;;
78887;SDS011;68276;49.326;8.690;2023-12-20T03:10:36;8.87;;;2.80;;
78887;SDS011;68276;49.326;8.690;2023-12-20T03:13:02;7.53;;;2.63;;
78887;SDS011;68276;49.326;8.690;2023-12-20T03:15:27;7.87;;;2.53;;
78887;SDS011;68276;49.326;8.690;2023-12-20T03:17:52;8.13;;;2.67;;
78887;SDS011;68276;49.326;8.690;2023-12-20T03:20:17;8.33;;;2.87;;
78887;SDS011;68276;49.326;8.690;2023-12-20T03:22:43;8.97;;;2.50;;
78887;SDS011;68276;49.326;8.690;2023-12-20T03:25:08;7.30;;;2.47;;
78887;SDS011;68276;49.326;8.690;2023-12-20T03:27:33;6.97;;;2.40;;
78887;SDS011;68276;49.326;8.690;2023-12-20T03:29:58;7.60;;;2.50;;
78887;SDS011;68276;49.326;8.690;2023-12-20T03:32:24;7.20;;;2.10;;
78887;SDS011;68276;49.326;8.690;2023-12-20T03:34:49;6.80;;;2.43;;
78887;SDS011;68276;49.326;8.690;2023-12-20T03:37:14;8.57;;;2.40;;
78887;SDS011;68276;49.326;8.690;2023-12-20T03:39:39;9.23;;;2.83;;
78887;SDS011;68276;49.326;8.690;2023-12-20T03:42:04;7.57;;;2.40;;
78887;SDS011;68276;49.326;8.690;2023-12-20T03:44:30;6.60;;;2.10;;
78887;SDS011;68276;49.326;8.690;2023-12-20T03:46:55;8.87;;;2.43;;
78887;SDS011;68276;49.326;8.690;2023-12-20T03:49:20;7.97;;;2.70;;
78887;SDS011;68276;49.326;8.690;2023-12-20T03:51:45;8.10;;;2.70;;
78887;SDS011;68276;49.326;8.690;2023-12-20T03:54:11;7.43;;;2.53;;
78887;SDS011;68276;49.326;8.690;2023-12-20T03:56:36;6.80;;;2.07;;
78887;SDS011;68276;49.326;8.690;2023-12-20T03:59:01;7.80;;;2.43;;
78887;SDS011;68276;49.326;8.690;2023-12-20T04:01:26;6.73;;;2.20;;
78887;SDS011;68276;49.326;8.690;2023-12-20T04:03:51;7.83;;;2.20;;
78887;SDS011;68276;49.326;8.690;2023-12-20T04:06:17;7.00;;;2.40;;
78887;SDS011;68276;49.326;8.690;2023-12-20T04:08:43;7.32;;;2.28;;
78887;SDS011;68276;49.326;8.690;2023-12-20T04:11:08;7.53;;;2.23;;
78887;SDS011;68276;49.326;8.690;2023-12-20T04:13:33;8.07;;;2.43;;
78887;SDS011;68276;49.326;8.690;2023-12-20T04:15:58;5.97;;;2.07;;
78887;SDS011;68276;49.326;8.690;2023-12-20T04:18:23;9.10;;;2.47;;
78887;SDS011;68276;49.326;8.690;2023-12-20T04:20:49;7.13;;;2.20;;
78887;SDS011;68276;49.326;8.690;2023-12-20T04:23:14;6.72;;;2.03;;
78887;SDS011;68276;49.326;8.690;2023-12-20T04:25:40;7.47;;;2.22;;
78887;SDS011;68276;49.326;8.690;2023-12-20T04:28:05;7.07;;;2.27;;
78887;SDS011;68276;49.326;8.690;2023-12-20T04:30:30;8.20;;;2.43;;
78887;SDS011;68276;49.326;8.690;2023-12-20T04:32:56;7.07;;;2.20;;
78887;SDS011;68276;49.326;8.690;2023-12-20T04:35:22;7.05;;;2.30;;
78887;SDS011;68276;49.326;8.690;2023-12-20T04:37:47;6.60;;;2.00;;
78887;SDS011;68276;49.326;8.690;2023-12-20T04:40:14;6.85;;;2.20;;
78887;SDS011;68276;49.326;8.690;2023-12-20T04:42:39;7.60;;;1.83;;
78887;SDS011;68276;49.326;8.690;2023-12-20T04:45:05;7.40;;;2.13;;
78887;SDS011;68276;49.326;8.690;2023-12-20T04:47:30;5.70;;;1.98;;
78887;SDS011;68276;49.326;8.690;2023-12-20T04:49:55;6.33;;;2.03;;
78887;SDS011;68276;49.326;8.690;2023-12-20T04:52:21;6.65;;;2.17;;
78887;SDS011;68276;49.326;8.690;2023-12-20T04:54:46;7.60;;;2.13;;
78887;SDS011;68276;49.326;8.690;2023-12-20T04:57:12;6.73;;;2.03;;
78887;SDS011;68276;49.326;8.690;2023-12-20T04:59:37;6.80;;;2.00;;
78887;SDS011;68276;49.326;8.690;2023-12-20T05:02:02;5.73;;;1.80;;
78887;SDS011;68276;49.326;8.690;2023-12-20T05:04:27;5.30;;;1.87;;
78887;SDS011;68276;49.326;8.690;2023-12-20T05:06:53;6.57;;;1.93;;
78887;SDS011;68276;49.326;8.690;2023-12-20T05:09:18;7.00;;;1.97;;
78887;SDS011;68276;49.326;8.690;2023-12-20T05:11:43;7.27;;;1.90;;
78887;SDS011;68276;49.326;8.690;2023-12-20T05:14:08;6.03;;;1.83;;
78887;SDS011;68276;49.326;8.690;2023-12-20T05:16:34;5.50;;;1.70;;
78887;SDS011;68276;49.326;8.690;2023-12-20T05:18:59;6.77;;;2.00;;
78887;SDS011;68276;49.326;8.690;2023-12-20T05:21:26;6.22;;;2.10;;
78887;SDS011;68276;49.326;8.690;2023-12-20T05:23:51;7.00;;;2.00;;
78887;SDS011;68276;49.326;8.690;2023-12-20T05:26:16;6.37;;;1.70;;
78887;SDS011;68276;49.326;8.690;2023-12-20T05:28:41;5.37;;;1.63;;
78887;SDS011;68276;49.326;8.690;2023-12-20T05:31:07;6.97;;;1.93;;
78887;SDS011;68276;49.326;8.690;2023-12-20T05:33:32;6.57;;;2.00;;
78887;SDS011;68276;49.326;8.690;2023-12-20T05:35:57;6.30;;;1.70;;
78887;SDS011;68276;49.326;8.690;2023-12-20T05:38:22;6.07;;;1.77;;
78887;SDS011;68276;49.326;8.690;2023-12-20T05:40:48;5.28;;;1.80;;
78887;SDS011;68276;49.326;8.690;2023-12-20T05:43:13;5.67;;;1.67;;
78887;SDS011;68276;49.326;8.690;2023-12-20T05:45:39;5.87;;;1.80;;
78887;SDS011;68276;49.326;8.690;2023-12-20T05:48:04;7.00;;;2.20;;
78887;SDS011;68276;49.326;8.690;2023-12-20T05:50:29;6.17;;;2.07;;
78887;SDS011;68276;49.326;8.690;2023-12-20T05:52:54;6.13;;;2.07;;
78887;SDS011;68276;49.326;8.690;2023-12-20T05:55:20;5.78;;;2.03;;
78887;SDS011;68276;49.326;8.690;2023-12-20T05:57:45;7.25;;;2.72;;
78887;SDS011;68276;49.326;8.690;2023-12-20T06:00:11;7.20;;;2.25;;
78887;SDS011;68276;49.326;8.690;2023-12-20T06:02:36;7.78;;;2.58;;
78887;SDS011;68276;49.326;8.690;2023-12-20T06:05:02;6.87;;;2.07;;
78887;SDS011;68276;49.326;8.690;2023-12-20T06:07:27;6.13;;;2.05;;
78887;SDS011;68276;49.326;8.690;2023-12-20T06:09:53;8.13;;;2.30;;
78887;SDS011;68276;49.326;8.690;2023-12-20T06:12:18;6.80;;;2.23;;
78887;SDS011;68276;49.326;8.690;2023-12-20T06:14:43;8.93;;;2.77;;
78887;SDS011;68276;49.326;8.690;2023-12-20T06:17:09;7.85;;;2.55;;
78887;SDS011;68276;49.326;8.690;2023-12-20T06:19:34;7.63;;;2.40;;
78887;SDS011;68276;49.326;8.690;2023-12-20T06:21:59;9.37;;;3.80;;
78887;SDS011;68276;49.326;8.690;2023-12-20T06:24:24;6.80;;;2.03;;
78887;SDS011;68276;49.326;8.690;2023-12-20T06:26:53;10.20;;;3.10;;
78887;SDS011;68276;49.326;8.690;2023-12-20T06:29:18;9.27;;;2.90;;
78887;SDS011;68276;49.326;8.690;2023-12-20T06:31:43;7.70;;;2.50;;
78887;SDS011;68276;49.326;8.690;2023-12-20T06:34:08;7.33;;;2.47;;
78887;SDS011;68276;49.326;8.690;2023-12-20T06:36:33;5.37;;;1.77;;
78887;SDS011;68276;49.326;8.690;2023-12-20T06:38:59;7.53;;;2.23;;
78887;SDS011;68276;49.326;8.690;2023-12-20T06:41:24;6.83;;;2.20;;
78887;SDS011;68276;49.326;8.690;2023-12-20T06:43:49;6.63;;;2.13;;
78887;SDS011;68276;49.326;8.690;2023-12-20T06:46:15;7.40;;;2.10;;
78887;SDS011;68276;49.326;8.690;2023-12-20T06:48:40;6.93;;;1.90;;
78887;SDS011;68276;49.326;8.690;2023-12-20T06:51:05;5.55;;;2.03;;
78887;SDS011;68276;49.326;8.690;2023-12-20T06:53:31;6.60;;;1.80;;
78887;SDS011;68276;49.326;8.690;2023-12-20T06:55:56;5.70;;;1.97;;
78887;SDS011;68276;49.326;8.690;2023-12-20T06:58:22;6.27;;;1.90;;
78887;SDS011;68276;49.326;8.690;2023-12-20T07:00:47;8.13;;;2.13;;
78887;SDS011;68276;49.326;8.690;2023-12-20T07:03:13;6.47;;;2.10;;
78887;SDS011;68276;49.326;8.690;2023-12-20T07:05:38;6.40;;;2.00;;
78887;SDS011;68276;49.326;8.690;2023-12-20T07:08:04;6.68;;;1.98;;
78887;SDS011;68276;49.326;8.690;2023-12-20T07:10:29;7.05;;;2.15;;
78887;SDS011;68276;49.326;8.690;2023-12-20T07:12:54;6.43;;;2.03;;
78887;SDS011;68276;49.326;8.690;2023-12-20T07:15:20;8.25;;;2.10;;
78887;SDS011;68276;49.326;8.690;2023-12-20T07:17:46;6.93;;;2.38;;
78887;SDS011;68276;49.326;8.690;2023-12-20T07:20:11;7.87;;;2.30;;
78887;SDS011;68276;49.326;8.690;2023-12-20T07:22:36;8.20;;;2.80;;
78887;SDS011;68276;49.326;8.690;2023-12-20T07:25:02;8.25;;;2.28;;
78887;SDS011;68276;49.326;8.690;2023-12-20T07:27:28;7.68;;;2.20;;
78887;SDS011;68276;49.326;8.690;2023-12-20T07:29:53;7.33;;;2.50;;
78887;SDS011;68276;49.326;8.690;2023-12-20T07:32:19;6.97;;;2.20;;
78887;SDS011;68276;49.326;8.690;2023-12-20T07:34:44;7.30;;;2.60;;
78887;SDS011;68276;49.326;8.690;2023-12-20T07:37:09;7.63;;;2.50;;
78887;SDS011;68276;49.326;8.690;2023-12-20T07:39:37;9.38;;;2.90;;
78887;SDS011;68276;49.326;8.690;2023-12-20T07:42:02;8.55;;;2.83;;
78887;SDS011;68276;49.326;8.690;2023-12-20T07:44:27;11.03;;;3.60;;
78887;SDS011;68276;49.326;8.690;2023-12-20T07:46:52;14.67;;;4.33;;
78887;SDS011;68276;49.326;8.690;2023-12-20T07:49:18;10.13;;;3.23;;
78887;SDS011;68276;49.326;8.690;2023-12-20T07:51:43;11.27;;;3.83;;
78887;SDS011;68276;49.326;8.690;2023-12-20T07:54:09;10.60;;;3.83;;
78887;SDS011;68276;49.326;8.690;2023-12-20T07:56:34;8.47;;;3.47;;
78887;SDS011;68276;49.326;8.690;2023-12-20T07:58:59;8.53;;;2.97;;
78887;SDS011;68276;49.326;8.690;2023-12-20T08:01:24;8.73;;;3.50;;
78887;SDS011;68276;49.326;8.690;2023-12-20T08:03:50;9.60;;;3.43;;
78887;SDS011;68276;49.326;8.690;2023-12-20T08:06:15;9.00;;;3.38;;
78887;SDS011;68276;49.326;8.690;2023-12-20T08:08:42;9.30;;;3.65;;
78887;SDS011;68276;49.326;8.690;2023-12-20T08:11:07;9.73;;;3.40;;
78887;SDS011;68276;49.326;8.690;2023-12-20T08:13:32;9.37;;;3.87;;
78887;SDS011;68276;49.326;8.690;2023-12-20T08:15:57;9.97;;;3.20;;
78887;SDS011;68276;49.326;8.690;2023-12-20T08:18:23;10.07;;;4.17;;
78887;SDS011;68276;49.326;8.690;2023-12-20T08:20:48;10.07;;;3.63;;
78887;SDS011;68276;49.326;8.690;2023-12-20T08:23:13;10.32;;;3.88;;
78887;SDS011;68276;49.326;8.690;2023-12-20T08:25:39;9.20;;;3.57;;
78887;SDS011;68276;49.326;8.690;2023-12-20T08:28:04;11.23;;;4.20;;
78887;SDS011;68276;49.326;8.690;2023-12-20T08:30:30;9.60;;;3.60;;
78887;SDS011;68276;49.326;8.690;2023-12-20T08:32:56;8.40;;;3.30;;
78887;SDS011;68276;49.326;8.690;2023-12-20T08:35:21;13.93;;;4.28;;
78887;SDS011;68276;49.326;8.690;2023-12-20T08:37:47;9.57;;;3.53;;
78887;SDS011;68276;49.326;8.690;2023-12-20T08:40:12;9.37;;;3.03;;
78887;SDS011;68276;49.326;8.690;2023-12-20T08:42:37;9.23;;;3.50;;
78887;SDS011;68276;49.326;8.690;2023-12-20T08:45:04;10.67;;;2.77;;
78887;SDS011;68276;49.326;8.690;2023-12-20T08:47:29;7.57;;;2.95;;
78887;SDS011;68276;49.326;8.690;2023-12-20T08:49:54;8.17;;;2.47;;
78887;SDS011;68276;49.326;8.690;2023-12-20T08:52:22;7.60;;;3.00;;
78887;SDS011;68276;49.326;8.690;2023-12-20T08:54:47;7.53;;;3.00;;
78887;SDS011;68276;49.326;8.690;2023-12-20T08:57:12;8.67;;;3.10;;
78887;SDS011;68276;49.326;8.690;2023-12-20T08:59:37;8.50;;;3.13;;
78887;SDS011;68276;49.326;8.690;2023-12-20T09:02:03;7.53;;;2.50;;
78887;SDS011;68276;49.326;8.690;2023-12-20T09:04:28;10.20;;;2.83;;
78887;SDS011;68276;49.326;8.690;2023-12-20T09:06:54;7.57;;;2.53;;
78887;SDS011;68276;49.326;8.690;2023-12-20T09:09:19;8.73;;;1.90;;
78887;SDS011;68276;49.326;8.690;2023-12-20T09:11:44;4.93;;;1.50;;
78887;SDS011;68276;49.326;8.690;2023-12-20T09:14:13;7.90;;;2.40;;
78887;SDS011;68276;49.326;8.690;2023-12-20T09:16:38;6.00;;;1.70;;
78887;SDS011;68276;49.326;8.690;2023-12-20T09:19:03;4.80;;;1.50;;
78887;SDS011;68276;49.326;8.690;2023-12-20T09:21:28;3.53;;;1.00;;
78887;SDS011;68276;49.326;8.690;2023-12-20T09:23:54;5.80;;;1.50;;
78887;SDS011;68276;49.326;8.690;2023-12-20T09:26:20;5.30;;;1.60;;
78887;SDS011;68276;49.326;8.690;2023-12-20T09:28:46;6.13;;;1.50;;
78887;SDS011;68276;49.326;8.690;2023-12-20T09:31:11;5.47;;;1.10;;
78887;SDS011;68276;49.326;8.690;2023-12-20T09:33:36;3.17;;;0.90;;
78887;SDS011;68276;49.326;8.690;2023-12-20T09:36:02;3.45;;;1.05;;
78887;SDS011;68276;49.326;8.690;2023-12-20T09:38:27;7.00;;;1.60;;
78887;SDS011;68276;49.326;8.690;2023-12-20T09:40:53;6.88;;;1.30;;
78887;SDS011;68276;49.326;8.690;2023-12-20T09:43:20;3.45;;;1.08;;
78887;SDS011;68276;49.326;8.690;2023-12-20T09:45:46;5.07;;;0.90;;
78887;SDS011;68276;49.326;8.690;2023-12-20T09:48:11;6.65;;;1.40;;
78887;SDS011;68276;49.326;8.690;2023-12-20T09:50:37;4.82;;;0.90;;
78887;SDS011;68276;49.326;8.690;2023-12-20T09:53:03;2.63;;;0.80;;
78887;SDS011;68276;49.326;8.690;2023-12-20T09:55:30;4.10;;;1.23;;
78887;SDS011;68276;49.326;8.690;2023-12-20T09:57:57;3.63;;;1.13;;
78887;SDS011;68276;49.326;8.690;2023-12-20T10:00:22;5.93;;;1.20;;
78887;SDS011;68276;49.326;8.690;2023-12-20T10:02:56;3.03;;;0.90;;
78887;SDS011;68276;49.326;8.690;2023-12-20T10:05:23;10.07;;;1.52;;
78887;SDS011;68276;49.326;8.690;2023-12-20T10:07:51;5.45;;;1.20;;
78887;SDS011;68276;49.326;8.690;2023-12-20T10:10:16;7.63;;;1.70;;
78887;SDS011;68276;49.326;8.690;2023-12-20T10:12:42;9.90;;;2.20;;
78887;SDS011;68276;49.326;8.690;2023-12-20T10:15:25;7.35;;;1.70;;
78887;SDS011;68276;49.326;8.690;2023-12-20T10:17:50;4.67;;;1.10;;
78887;SDS011;68276;49.326;8.690;2023-12-20T10:20:16;5.30;;;1.10;;
78887;SDS011;68276;49.326;8.690;2023-12-20T10:22:41;5.33;;;1.40;;
78887;SDS011;68276;49.326;8.690;2023-12-20T10:25:07;7.60;;;1.60;;
78887;SDS011;68276;49.326;8.690;2023-12-20T10:27:32;8.68;;;1.45;;
78887;SDS011;68276;49.326;8.690;2023-12-20T10:29:58;5.38;;;1.52;;
78887;SDS011;68276;49.326;8.690;2023-12-20T10:32:25;4.13;;;0.90;;
78887;SDS011;68276;49.326;8.690;2023-12-20T10:34:50;4.13;;;0.90;;
78887;SDS011;68276;49.326;8.690;2023-12-20T10:37:16;6.03;;;1.00;;
78887;SDS011;68276;49.326;8.690;2023-12-20T10:39:42;8.52;;;1.25;;
78887;SDS011;68276;49.326;8.690;2023-12-20T10:42:08;8.20;;;1.48;;
78887;SDS011;68276;49.326;8.690;2023-12-20T10:44:34;4.57;;;1.10;;
78887;SDS011;68276;49.326;8.690;2023-12-20T10:46:59;5.07;;;0.97;;
78887;SDS011;68276;49.326;8.690;2023-12-20T10:49:25;4.85;;;1.17;;
78887;SDS011;68276;49.326;8.690;2023-12-20T10:51:51;6.13;;;1.27;;
78887;SDS011;68276;49.326;8.690;2023-12-20T10:54:17;4.60;;;1.20;;
78887;SDS011;68276;49.326;8.690;2023-12-20T10:56:43;5.53;;;0.90;;
78887;SDS011;68276;49.326;8.690;2023-12-20T10:59:08;3.93;;;1.37;;
78887;SDS011;68276;49.326;8.690;2023-12-20T11:01:35;5.53;;;1.27;;
78887;SDS011;68276;49.326;8.690;2023-12-20T11:04:03;5.97;;;1.17;;
78887;SDS011;68276;49.326;8.690;2023-12-20T11:11:38;4.40;;;0.93;;
78887;SDS011;68276;49.326;8.690;2023-12-20T11:14:12;7.78;;;1.17;;
78887;SDS011;68276;49.326;8.690;2023-12-20T11:16:40;5.07;;;1.00;;
78887;SDS011;68276;49.326;8.690;2023-12-20T11:19:06;4.57;;;1.33;;
78887;SDS011;68276;49.326;8.690;2023-12-20T11:21:31;5.35;;;1.10;;
78887;SDS011;68276;49.326;8.690;2023-12-20T11:23:56;5.47;;;0.87;;
78887;SDS011;68276;49.326;8.690;2023-12-20T11:26:22;5.27;;;1.27;;
78887;SDS011;68276;49.326;8.690;2023-12-20T11:28:47;4.63;;;1.33;;
78887;SDS011;68276;49.326;8.690;2023-12-20T11:31:13;4.50;;;1.10;;
78887;SDS011;68276;49.326;8.690;2023-12-20T11:33:39;5.75;;;1.40;;
78887;SDS011;68276;49.326;8.690;2023-12-20T11:36:12;6.97;;;1.58;;
78887;SDS011;68276;49.326;8.690;2023-12-20T11:38:38;5.18;;;1.40;;
78887;SDS011;68276;49.326;8.690;2023-12-20T11:41:05;5.05;;;1.10;;
78887;SDS011;68276;49.326;8.690;2023-12-20T11:45:56;7.25;;;1.40;;
78887;SDS011;68276;49.326;8.690;2023-12-20T11:48:27;5.35;;;1.48;;
78887;SDS011;68276;49.326;8.690;2023-12-20T11:50:53;5.93;;;1.77;;
78887;SDS011;68276;49.326;8.690;2023-12-20T11:53:18;8.77;;;1.87;;
78887;SDS011;68276;49.326;8.690;2023-12-20T11:55:47;8.43;;;1.77;;
78887;SDS011;68276;49.326;8.690;2023-12-20T11:58:12;8.10;;;1.50;;
78887;SDS011;68276;49.326;8.690;2023-12-20T12:00:38;5.43;;;1.30;;
78887;SDS011;68276;49.326;8.690;2023-12-20T12:03:03;6.73;;;1.40;;
78887;SDS011;68276;49.326;8.690;2023-12-20T12:05:30;6.93;;;1.33;;
78887;SDS011;68276;49.326;8.690;2023-12-20T12:10:21;6.77;;;1.73;;
78887;SDS011;68276;49.326;8.690;2023-12-20T12:12:47;8.10;;;1.63;;
78887;SDS011;68276;49.326;8.690;2023-12-20T12:15:13;6.50;;;1.67;;
78887;SDS011;68276;49.326;8.690;2023-12-20T12:17:39;6.07;;;1.38;;
78887;SDS011;68276;49.326;8.690;2023-12-20T12:20:05;8.63;;;1.80;;
78887;SDS011;68276;49.326;8.690;2023-12-20T12:22:30;7.78;;;1.60;;
78887;SDS011;68276;49.326;8.690;2023-12-20T12:24:58;7.77;;;1.73;;
78887;SDS011;68276;49.326;8.690;2023-12-20T12:27:23;6.93;;;1.73;;
78887;SDS011;68276;49.326;8.690;2023-12-20T12:30:04;7.43;;;1.55;;
78887;SDS011;68276;49.326;8.690;2023-12-20T12:32:35;7.88;;;1.67;;
78887;SDS011;68276;49.326;8.690;2023-12-20T12:35:02;8.02;;;1.60;;
78887;SDS011;68276;49.326;8.690;2023-12-20T12:37:28;5.35;;;1.50;;
78887;SDS011;68276;49.326;8.690;2023-12-20T12:39:53;5.97;;;1.63;;
78887;SDS011;68276;49.326;8.690;2023-12-20T12:42:19;7.13;;;1.30;;
78887;SDS011;68276;49.326;8.690;2023-12-20T12:44:45;6.85;;;1.60;;
78887;SDS011;68276;49.326;8.690;2023-12-20T12:47:11;6.70;;;1.40;;
78887;SDS011;68276;49.326;8.690;2023-12-20T12:49:36;4.47;;;1.47;;
78887;SDS011;68276;49.326;8.690;2023-12-20T12:52:01;4.70;;;1.10;;
78887;SDS011;68276;49.326;8.690;2023-12-20T12:54:28;7.07;;;1.42;;
78887;SDS011;68276;49.326;8.690;2023-12-20T12:56:53;7.73;;;1.47;;
78887;SDS011;68276;49.326;8.690;2023-12-20T12:59:18;7.43;;;1.77;;
78887;SDS011;68276;49.326;8.690;2023-12-20T13:01:44;5.93;;;1.40;;
78887;SDS011;68276;49.326;8.690;2023-12-20T13:04:09;9.53;;;1.77;;
78887;SDS011;68276;49.326;8.690;2023-12-20T13:06:38;6.93;;;1.40;;
78887;SDS011;68276;49.326;8.690;2023-12-20T13:09:04;5.57;;;1.48;;
78887;SDS011;68276;49.326;8.690;2023-12-20T13:11:30;6.30;;;1.50;;
78887;SDS011;68276;49.326;8.690;2023-12-20T13:13:56;6.85;;;1.55;;
78887;SDS011;68276;49.326;8.690;2023-12-20T13:16:22;9.95;;;2.45;;
78887;SDS011;68276;49.326;8.690;2023-12-20T13:18:48;7.55;;;1.75;;
78887;SDS011;68276;49.326;8.690;2023-12-20T13:21:13;6.87;;;1.50;;
78887;SDS011;68276;49.326;8.690;2023-12-20T13:23:38;7.83;;;1.80;;
78887;SDS011;68276;49.326;8.690;2023-12-20T13:26:03;7.57;;;1.73;;
78887;SDS011;68276;49.326;8.690;2023-12-20T13:28:29;6.30;;;1.60;;
78887;SDS011;68276;49.326;8.690;2023-12-20T13:30:54;7.13;;;1.80;;
78887;SDS011;68276;49.326;8.690;2023-12-20T13:33:19;12.20;;;1.90;;
78887;SDS011;68276;49.326;8.690;2023-12-20T13:35:44;9.90;;;1.60;;
78887;SDS011;68276;49.326;8.690;2023-12-20T13:38:10;8.73;;;1.80;;
78887;SDS011;68276;49.326;8.690;2023-12-20T13:40:37;7.78;;;1.65;;
78887;SDS011;68276;49.326;8.690;2023-12-20T13:43:02;5.70;;;2.03;;
78887;SDS011;68276;49.326;8.690;2023-12-20T13:45:28;6.53;;;1.77;;
78887;SDS011;68276;49.326;8.690;2023-12-20T13:47:53;10.83;;;2.23;;
78887;SDS011;68276;49.326;8.690;2023-12-20T13:50:18;4.40;;;1.40;;
78887;SDS011;68276;49.326;8.690;2023-12-20T13:52:43;8.37;;;1.60;;
78887;SDS011;68276;49.326;8.690;2023-12-20T13:55:09;12.90;;;2.00;;
78887;SDS011;68276;49.326;8.690;2023-12-20T13:57:34;7.87;;;1.60;;
78887;SDS011;68276;49.326;8.690;2023-12-20T14:00:02;7.00;;;1.83;;
78887;SDS011;68276;49.326;8.690;2023-12-20T14:02:28;6.22;;;1.40;;
78887;SDS011;68276;49.326;8.690;2023-12-20T14:04:53;6.27;;;1.73;;
78887;SDS011;68276;49.326;8.690;2023-12-20T14:07:19;8.63;;;2.47;;
78887;SDS011;68276;49.326;8.690;2023-12-20T14:09:44;11.90;;;2.60;;
78887;SDS011;68276;49.326;8.690;2023-12-20T14:12:11;5.82;;;1.40;;
78887;SDS011;68276;49.326;8.690;2023-12-20T14:14:36;11.57;;;2.00;;
78887;SDS011;68276;49.326;8.690;2023-12-20T14:17:01;6.53;;;1.50;;
78887;SDS011;68276;49.326;8.690;2023-12-20T14:19:26;10.53;;;1.83;;
78887;SDS011;68276;49.326;8.690;2023-12-20T14:21:52;10.25;;;2.33;;
78887;SDS011;68276;49.326;8.690;2023-12-20T14:24:17;9.67;;;1.60;;
78887;SDS011;68276;49.326;8.690;2023-12-20T14:26:42;6.40;;;1.53;;
78887;SDS011;68276;49.326;8.690;2023-12-20T14:29:08;10.70;;;1.77;;
78887;SDS011;68276;49.326;8.690;2023-12-20T14:31:34;10.63;;;1.90;;
78887;SDS011;68276;49.326;8.690;2023-12-20T14:33:59;6.40;;;1.77;;
78887;SDS011;68276;49.326;8.690;2023-12-20T14:36:25;8.15;;;1.38;;
78887;SDS011;68276;49.326;8.690;2023-12-20T14:38:51;5.40;;;1.47;;
78887;SDS011;68276;49.326;8.690;2023-12-20T14:41:16;7.50;;;1.40;;
78887;SDS011;68276;49.326;8.690;2023-12-20T14:43:43;3.95;;;1.10;;
78887;SDS011;68276;49.326;8.690;2023-12-20T14:46:09;8.03;;;1.33;;